createdAt,value
2019-06-27T00:02:07.181Z,9.20
2019-06-27T00:07:13.431Z,9.55
2019-06-27T00:12:19.420Z,8.63
2019-06-27T00:17:24.844Z,9.40
2019-06-27T00:22:31.143Z,8.80
2019-06-27T00:27:36.980Z,8.70
2019-06-27T00:32:43.891Z,9.35
2019-06-27T00:37:49.431Z,8.98
2019-06-27T00:42:56.596Z,9.63
2019-06-27T00:48:02.904Z,8.90
2019-06-27T00:53:08.396Z,9.23
2019-06-27T00:58:14.420Z,9.28
2019-06-27T01:03:21.419Z,10.08
2019-06-27T01:08:28.926Z,8.88
2019-06-27T01:13:34.385Z,9.03
2019-06-27T01:18:39.961Z,9.20
2019-06-27T01:23:45.794Z,9.23
2019-06-27T01:28:51.937Z,9.25
2019-06-27T01:33:57.807Z,9.10
2019-06-27T01:39:03.593Z,9.55
2019-06-27T01:44:28.064Z,9.48
2019-06-27T01:49:33.558Z,8.90
2019-06-27T01:54:40.196Z,8.98
2019-06-27T01:59:45.943Z,8.45
2019-06-27T02:04:51.617Z,7.75
2019-06-27T02:09:58.459Z,8.05
2019-06-27T02:15:03.901Z,7.92
2019-06-27T02:20:10.181Z,9.45
2019-06-27T02:25:17.086Z,9.20
2019-06-27T02:30:33.528Z,8.70
2019-06-27T02:35:39.461Z,8.23
2019-06-27T02:40:45.039Z,7.95
2019-06-27T02:45:50.623Z,7.85
2019-06-27T02:50:57.003Z,7.83
2019-06-27T02:56:02.229Z,8.85
2019-06-27T03:01:07.961Z,8.93
2019-06-27T03:06:13.778Z,9.30
2019-06-27T03:11:19.397Z,8.70
2019-06-27T03:16:24.829Z,9.20
2019-06-27T03:21:30.402Z,9.13
2019-06-27T03:26:36.383Z,9.88
2019-06-27T03:31:42.611Z,9.20
2019-06-27T03:36:48.565Z,9.00
2019-06-27T03:41:54.086Z,9.65
2019-06-27T03:46:59.738Z,9.90
2019-06-27T03:52:07.447Z,9.88
2019-06-27T03:57:12.964Z,10.08
2019-06-27T04:02:18.713Z,9.78
2019-06-27T04:07:24.365Z,10.78
2019-06-27T04:12:29.858Z,10.88
2019-06-27T04:17:35.775Z,10.75
2019-06-27T04:22:41.227Z,10.35
2019-06-27T04:27:46.727Z,9.85
2019-06-27T04:32:52.722Z,9.33
2019-06-27T04:37:58.338Z,9.13
2019-06-27T04:43:05.789Z,8.83
2019-06-27T04:48:11.550Z,10.00
2019-06-27T04:53:17.738Z,9.38
2019-06-27T04:58:23.952Z,9.78
2019-06-27T05:03:30.040Z,10.05
2019-06-27T05:08:36.070Z,10.10
2019-06-27T05:13:42.077Z,10.43
2019-06-27T05:18:47.793Z,10.82
2019-06-27T05:23:53.983Z,10.30
2019-06-27T05:29:00.885Z,10.93
2019-06-27T05:34:07.323Z,11.15
2019-06-27T05:39:12.951Z,9.85
2019-06-27T05:44:18.480Z,10.20
2019-06-27T05:49:24.568Z,10.45
2019-06-27T05:54:30.132Z,11.55
2019-06-27T05:59:35.724Z,10.90
2019-06-27T06:04:41.918Z,11.10
2019-06-27T06:09:48.271Z,11.93
2019-06-27T06:14:54.409Z,10.75
2019-06-27T06:20:00.072Z,11.48
2019-06-27T06:25:06.155Z,10.70
2019-06-27T06:30:13.541Z,10.82
2019-06-27T06:35:19.423Z,10.75
2019-06-27T06:40:24.927Z,11.48
2019-06-27T06:45:30.727Z,11.12
2019-06-27T06:50:36.476Z,11.25
2019-06-27T06:55:42.854Z,11.90
2019-06-27T07:01:00.887Z,12.05
2019-06-27T07:05:56.317Z,11.57
2019-06-27T07:11:01.881Z,10.72
2019-06-27T07:16:07.272Z,12.13
2019-06-27T07:21:12.802Z,11.38
2019-06-27T07:26:21.918Z,10.28
2019-06-27T07:31:25.561Z,12.30
2019-06-27T07:36:31.434Z,10.98
2019-06-27T07:41:36.731Z,10.72
2019-06-27T07:46:42.220Z,10.00
2019-06-27T07:51:47.763Z,10.30
2019-06-27T07:56:53.635Z,10.15
2019-06-27T08:01:59.458Z,10.15
2019-06-27T08:07:05.347Z,11.28
2019-06-27T08:12:10.863Z,10.05
2019-06-27T08:17:17.807Z,9.85
2019-06-27T08:22:23.459Z,9.83
2019-06-27T08:27:28.851Z,8.50
2019-06-27T08:32:34.688Z,9.45
2019-06-27T08:37:40.319Z,9.35
2019-06-27T08:42:45.652Z,9.43
2019-06-27T08:47:51.998Z,10.05
2019-06-27T08:53:01.027Z,10.48
2019-06-27T08:58:07.438Z,9.28
2019-06-27T09:03:12.988Z,10.60
2019-06-27T09:08:20.226Z,9.43
2019-06-27T09:13:26.310Z,8.50
2019-06-27T09:18:32.048Z,8.13
2019-06-27T09:23:37.911Z,6.87
2019-06-27T09:28:43.356Z,8.23
2019-06-27T09:33:48.873Z,7.15
2019-06-27T09:38:54.833Z,7.75
2019-06-27T09:44:00.386Z,9.08
2019-06-27T09:49:07.310Z,7.53
2019-06-27T09:54:12.659Z,8.13
2019-06-27T09:59:18.099Z,7.92
2019-06-27T10:04:23.528Z,8.05
2019-06-27T10:09:29.185Z,8.08
2019-06-27T10:14:34.712Z,9.50
2019-06-27T10:19:43.316Z,10.40
2019-06-27T10:24:49.130Z,9.78
2019-06-27T10:29:54.957Z,9.03
2019-06-27T10:35:00.746Z,8.73
2019-06-27T10:40:07.035Z,8.55
2019-06-27T10:45:12.993Z,8.53
2019-06-27T10:50:18.758Z,8.98
2019-06-27T10:55:24.323Z,8.53
2019-06-27T11:00:30.192Z,9.53
2019-06-27T11:05:35.664Z,8.73
2019-06-27T11:10:41.235Z,8.88
2019-06-27T11:15:49.370Z,10.15
2019-06-27T11:20:56.870Z,9.88
2019-06-27T11:26:02.971Z,8.70
2019-06-27T11:31:08.413Z,8.73
2019-06-27T11:36:14.706Z,7.95
2019-06-27T11:41:21.078Z,8.60
2019-06-27T11:46:26.734Z,8.00
2019-06-27T11:51:32.274Z,8.35
2019-06-27T11:56:37.891Z,8.33
2019-06-27T12:01:43.880Z,7.25
2019-06-27T12:06:49.208Z,7.90
2019-06-27T12:11:55.276Z,7.42
2019-06-27T12:17:00.651Z,7.50
2019-06-27T12:22:06.098Z,7.90
2019-06-27T12:27:12.185Z,8.35
2019-06-27T12:32:17.892Z,8.10
2019-06-27T12:37:23.325Z,6.97
2019-06-27T12:42:32.779Z,7.28
2019-06-27T12:47:36.323Z,7.33
2019-06-27T12:52:42.098Z,6.50
2019-06-27T12:57:47.607Z,6.83
2019-06-27T13:02:53.553Z,6.50
2019-06-27T13:07:59.591Z,6.90
2019-06-27T13:13:05.973Z,7.25
2019-06-27T13:18:11.841Z,6.00
2019-06-27T13:23:17.355Z,6.42
2019-06-27T13:28:23.092Z,7.20
2019-06-27T13:33:28.435Z,6.47
2019-06-27T13:38:34.042Z,6.28
2019-06-27T13:43:39.944Z,7.20
2019-06-27T13:48:45.270Z,7.42
2019-06-27T13:53:51.068Z,7.42
2019-06-27T13:58:58.946Z,7.08
2019-06-27T14:04:04.888Z,7.28
2019-06-27T14:09:22.220Z,6.87
2019-06-27T14:14:18.658Z,6.08
2019-06-27T14:19:24.284Z,7.53
2019-06-27T14:24:29.820Z,7.87
2019-06-27T14:29:37.164Z,7.55
2019-06-27T14:34:43.159Z,7.53
2019-06-27T14:39:48.609Z,7.55
2019-06-27T14:44:55.004Z,7.50
2019-06-27T14:50:03.431Z,7.95
2019-06-27T14:55:09.402Z,7.95
2019-06-27T15:00:15.042Z,9.28
2019-06-27T15:05:31.839Z,8.88
2019-06-27T15:10:30.223Z,8.68
2019-06-27T15:15:36.383Z,9.00
2019-06-27T15:20:41.786Z,9.13
2019-06-27T15:25:47.510Z,9.23
2019-06-27T15:30:52.881Z,8.75
2019-06-27T15:36:35.304Z,8.63
2019-06-27T15:41:38.707Z,8.35
2019-06-27T15:46:44.478Z,8.93
2019-06-27T15:51:50.286Z,9.18
2019-06-27T15:56:56.410Z,8.93
2019-06-27T16:02:02.044Z,8.55
2019-06-27T16:07:07.307Z,8.28
2019-06-27T16:12:12.663Z,8.65
2019-06-27T16:17:18.024Z,8.73
2019-06-27T16:22:23.415Z,8.95
2019-06-27T16:27:29.319Z,9.40
2019-06-27T16:32:34.867Z,8.20
2019-06-27T16:37:42.037Z,8.03
2019-06-27T16:42:47.316Z,8.50
2019-06-27T16:47:53.104Z,9.10
2019-06-27T16:52:58.902Z,7.85
2019-06-27T16:58:05.378Z,9.00
2019-06-27T17:03:10.898Z,9.48
2019-06-27T17:08:16.749Z,9.00
2019-06-27T17:13:22.936Z,9.65
2019-06-27T17:18:28.698Z,9.30
2019-06-27T17:23:34.386Z,9.50
2019-06-27T17:28:40.384Z,8.93
2019-06-27T17:33:48.019Z,9.48
2019-06-27T17:38:53.729Z,9.70
2019-06-27T17:43:59.245Z,8.95
2019-06-27T17:49:04.948Z,9.33
2019-06-27T17:54:10.915Z,10.15
2019-06-27T17:59:16.865Z,11.48
2019-06-27T18:04:23.337Z,10.25
2019-06-27T18:09:29.516Z,9.60
2019-06-27T18:14:35.059Z,10.58
2019-06-27T18:19:40.569Z,11.08
2019-06-27T18:24:46.110Z,10.55
2019-06-27T18:29:51.620Z,11.03
2019-06-27T18:34:57.038Z,10.70
2019-06-27T18:40:02.755Z,10.28
2019-06-27T18:45:08.546Z,10.65
2019-06-27T18:50:14.110Z,10.72
2019-06-27T18:55:19.357Z,10.43
2019-06-27T19:00:25.016Z,10.32
2019-06-27T19:05:31.401Z,13.78
2019-06-27T19:10:36.894Z,10.65
2019-06-27T19:15:42.344Z,10.63
2019-06-27T19:20:52.360Z,9.33
2019-06-27T19:26:00.094Z,9.85
2019-06-27T19:31:05.479Z,10.15
2019-06-27T19:36:11.086Z,10.08
2019-06-27T19:41:16.862Z,9.05
2019-06-27T19:46:22.166Z,8.53
2019-06-27T19:51:28.392Z,8.58
2019-06-27T19:56:34.172Z,8.80
2019-06-27T20:01:39.953Z,9.00
2019-06-27T20:06:47.002Z,7.20
2019-06-27T20:11:52.758Z,9.03
2019-06-27T20:16:59.165Z,8.68
2019-06-27T20:22:04.537Z,8.95
2019-06-27T20:27:10.249Z,9.25
2019-06-27T20:32:15.727Z,9.03
2019-06-27T20:37:21.185Z,9.08
2019-06-27T20:42:26.851Z,9.23
2019-06-27T20:47:32.566Z,9.88
2019-06-27T20:52:38.416Z,10.10
2019-06-27T20:57:44.443Z,9.35
2019-06-27T21:02:49.834Z,9.15
2019-06-27T21:07:55.802Z,9.75
2019-06-27T21:13:01.745Z,9.53
2019-06-27T21:18:07.320Z,9.70
2019-06-27T21:23:12.818Z,9.13
2019-06-27T21:28:18.626Z,9.65
2019-06-27T21:33:24.072Z,10.30
2019-06-27T21:38:29.857Z,9.65
2019-06-27T21:43:35.260Z,9.45
2019-06-27T21:48:42.196Z,9.38
2019-06-27T21:53:47.877Z,9.10
2019-06-27T21:58:54.421Z,8.63
2019-06-27T22:03:59.851Z,8.60
2019-06-27T22:09:23.044Z,9.25
2019-06-27T22:14:15.465Z,9.10
2019-06-27T22:19:21.659Z,8.03
2019-06-27T22:24:27.963Z,8.48
2019-06-27T22:29:33.744Z,7.22
2019-06-27T22:34:39.172Z,5.83
2019-06-27T22:40:02.701Z,5.45
2019-06-27T22:45:25.976Z,4.33
2019-06-27T22:50:56.348Z,4.10
2019-06-27T22:56:02.872Z,3.47
2019-06-27T23:01:08.829Z,3.45
2019-06-27T23:06:14.827Z,3.60
2019-06-27T23:23:30.194Z,2.45
2019-06-27T23:28:36.005Z,2.50
2019-06-27T23:33:41.625Z,2.52
2019-06-27T23:38:47.309Z,1.85
2019-06-27T23:43:53.061Z,1.90
2019-06-27T23:48:58.513Z,1.90
2019-06-27T23:54:04.573Z,1.70
2019-06-27T23:59:10.475Z,1.80
